sensor_id;sensor_type;location;lat;lon;timestamp;pressure;altitude;pressure_sealevel;temperature;humidity
10348;BME280;5220;43.192;23.284;2023-01-28T00:01:49;96514.28;;;3.68;100.00
10348;BME280;5220;43.192;23.284;2023-01-28T00:04:16;96515.03;;;3.70;100.00
10348;BME280;5220;43.192;23.284;2023-01-28T00:06:43;96514.28;;;3.68;100.00
10348;BME280;5220;43.192;23.284;2023-01-28T00:09:10;96506.50;;;3.69;100.00
10348;BME280;5220;43.192;23.284;2023-01-28T00:11:38;96510.97;;;3.66;100.00
10348;BME280;5220;43.192;23.284;2023-01-28T00:14:04;96508.56;;;3.63;100.00
10348;BME280;5220;43.192;23.284;2023-01-28T00:16:31;96517.44;;;3.57;100.00
10348;BME280;5220;43.192;23.284;2023-01-28T00:18:58;96511.13;;;3.63;100.00
10348;BME280;5220;43.192;23.284;2023-01-28T00:21:25;96520.88;;;3.41;100.00
10348;BME280;5220;43.192;23.284;2023-01-28T00:23:53;96516.75;;;3.54;100.00
10348;BME280;5220;43.192;23.284;2023-01-28T00:26:20;96512.50;;;3.53;100.00
10348;BME280;5220;43.192;23.284;2023-01-28T00:28:49;96520.31;;;3.51;100.00
10348;BME280;5220;43.192;23.284;2023-01-28T00:31:17;96521.56;;;3.60;100.00
10348;BME280;5220;43.192;23.284;2023-01-28T00:33:46;96527.56;;;3.60;100.00
10348;BME280;5220;43.192;23.284;2023-01-28T00:36:14;96528.22;;;3.64;100.00
10348;BME280;5220;43.192;23.284;2023-01-28T00:38:41;96532.53;;;3.63;100.00
10348;BME280;5220;43.192;23.284;2023-01-28T00:41:08;96534.00;;;3.67;100.00
10348;BME280;5220;43.192;23.284;2023-01-28T00:43:35;96533.53;;;3.61;100.00
10348;BME280;5220;43.192;23.284;2023-01-28T00:46:04;96536.00;;;3.62;100.00
10348;BME280;5220;43.192;23.284;2023-01-28T00:48:32;96532.28;;;3.68;100.00
10348;BME280;5220;43.192;23.284;2023-01-28T00:50:58;96538.94;;;3.72;100.00
10348;BME280;5220;43.192;23.284;2023-01-28T00:53:25;96545.81;;;3.71;100.00
10348;BME280;5220;43.192;23.284;2023-01-28T00:55:52;96545.66;;;3.74;100.00
10348;BME280;5220;43.192;23.284;2023-01-28T00:58:19;96539.78;;;3.72;100.00
10348;BME280;5220;43.192;23.284;2023-01-28T01:00:48;96540.50;;;3.74;100.00
10348;BME280;5220;43.192;23.284;2023-01-28T01:03:16;96533.63;;;3.75;100.00
10348;BME280;5220;43.192;23.284;2023-01-28T01:05:43;96538.59;;;3.78;100.00
10348;BME280;5220;43.192;23.284;2023-01-28T01:08:10;96545.31;;;3.80;100.00
10348;BME280;5220;43.192;23.284;2023-01-28T01:10:37;96545.44;;;3.79;100.00
10348;BME280;5220;43.192;23.284;2023-01-28T01:13:04;96548.00;;;3.79;100.00
10348;BME280;5220;43.192;23.284;2023-01-28T01:15:32;96547.47;;;3.72;100.00
10348;BME280;5220;43.192;23.284;2023-01-28T01:17:58;96544.81;;;3.74;100.00
10348;BME280;5220;43.192;23.284;2023-01-28T01:20:28;96545.81;;;3.71;100.00
10348;BME280;5220;43.192;23.284;2023-01-28T01:22:58;96541.63;;;3.53;100.00
10348;BME280;5220;43.192;23.284;2023-01-28T01:25:24;96543.47;;;3.51;100.00
10348;BME280;5220;43.192;23.284;2023-01-28T01:27:51;96551.09;;;3.53;100.00
10348;BME280;5220;43.192;23.284;2023-01-28T01:30:18;96545.03;;;3.54;100.00
10348;BME280;5220;43.192;23.284;2023-01-28T01:32:45;96546.50;;;3.42;100.00
10348;BME280;5220;43.192;23.284;2023-01-28T01:35:12;96545.69;;;3.42;100.00
10348;BME280;5220;43.192;23.284;2023-01-28T01:37:43;96547.78;;;3.51;100.00
10348;BME280;5220;43.192;23.284;2023-01-28T01:40:10;96547.50;;;3.55;100.00
10348;BME280;5220;43.192;23.284;2023-01-28T01:42:37;96542.78;;;3.48;100.00
10348;BME280;5220;43.192;23.284;2023-01-28T01:45:05;96545.88;;;3.54;100.00
10348;BME280;5220;43.192;23.284;2023-01-28T01:47:38;96545.78;;;3.56;100.00
10348;BME280;5220;43.192;23.284;2023-01-28T01:50:15;96555.91;;;3.59;100.00
10348;BME280;5220;43.192;23.284;2023-01-28T01:52:44;96554.34;;;3.56;100.00
10348;BME280;5220;43.192;23.284;2023-01-28T01:55:16;96553.13;;;3.46;100.00
10348;BME280;5220;43.192;23.284;2023-01-28T01:57:45;96548.59;;;3.51;100.00
10348;BME280;5220;43.192;23.284;2023-01-28T02:00:13;96550.88;;;3.57;100.00
10348;BME280;5220;43.192;23.284;2023-01-28T02:02:43;96548.66;;;3.50;100.00
10348;BME280;5220;43.192;23.284;2023-01-28T02:05:13;96563.41;;;3.46;100.00
10348;BME280;5220;43.192;23.284;2023-01-28T02:07:42;96557.91;;;3.54;100.00
10348;BME280;5220;43.192;23.284;2023-01-28T02:10:12;96559.41;;;3.58;100.00
10348;BME280;5220;43.192;23.284;2023-01-28T02:12:41;96554.44;;;3.55;100.00
10348;BME280;5220;43.192;23.284;2023-01-28T02:15:10;96562.03;;;3.56;100.00
10348;BME280;5220;43.192;23.284;2023-01-28T02:17:38;96554.84;;;3.63;100.00
10348;BME280;5220;43.192;23.284;2023-01-28T02:20:09;96559.72;;;3.67;100.00
10348;BME280;5220;43.192;23.284;2023-01-28T02:23:02;96562.97;;;3.71;100.00
10348;BME280;5220;43.192;23.284;2023-01-28T02:28:27;96562.81;;;3.74;100.00
10348;BME280;5220;43.192;23.284;2023-01-28T02:31:00;96570.53;;;3.74;100.00
10348;BME280;5220;43.192;23.284;2023-01-28T02:33:34;96562.81;;;3.74;100.00
10348;BME280;5220;43.192;23.284;2023-01-28T02:36:11;96566.16;;;3.76;100.00
10348;BME280;5220;43.192;23.284;2023-01-28T02:38:42;96563.75;;;3.73;100.00
10348;BME280;5220;43.192;23.284;2023-01-28T02:41:17;96572.94;;;3.77;100.00
10348;BME280;5220;43.192;23.284;2023-01-28T02:43:48;96573.88;;;3.76;100.00
10348;BME280;5220;43.192;23.284;2023-01-28T02:46:20;96576.28;;;3.79;100.00
10348;BME280;5220;43.192;23.284;2023-01-28T02:49:09;96577.94;;;3.80;100.00
10348;BME280;5220;43.192;23.284;2023-01-28T02:51:44;96578.25;;;3.74;100.00
10348;BME280;5220;43.192;23.284;2023-01-28T02:54:22;96580.25;;;3.69;100.00
10348;BME280;5220;43.192;23.284;2023-01-28T02:56:58;96579.19;;;3.73;100.00
10348;BME280;5220;43.192;23.284;2023-01-28T02:59:30;96582.44;;;3.76;100.00
10348;BME280;5220;43.192;23.284;2023-01-28T03:02:08;96570.31;;;3.78;100.00
10348;BME280;5220;43.192;23.284;2023-01-28T03:04:40;96580.50;;;3.80;100.00
10348;BME280;5220;43.192;23.284;2023-01-28T03:07:11;96580.50;;;3.80;100.00
10348;BME280;5220;43.192;23.284;2023-01-28T03:09:41;96582.44;;;3.76;100.00
10348;BME280;5220;43.192;23.284;2023-01-28T03:12:12;96579.34;;;3.70;100.00
10348;BME280;5220;43.192;23.284;2023-01-28T03:15:01;96584.22;;;3.74;100.00
10348;BME280;5220;43.192;23.284;2023-01-28T03:17:49;96585.81;;;3.77;100.00
10348;BME280;5220;43.192;23.284;2023-01-28T03:20:38;96589.06;;;3.80;100.00
10348;BME280;5220;43.192;23.284;2023-01-28T03:23:35;96595.19;;;3.78;100.00
10348;BME280;5220;43.192;23.284;2023-01-28T03:26:21;96587.59;;;3.76;100.00
10348;BME280;5220;43.192;23.284;2023-01-28T03:29:09;96590.06;;;3.78;100.00
10348;BME280;5220;43.192;23.284;2023-01-28T03:31:58;96590.53;;;3.69;100.00
10348;BME280;5220;43.192;23.284;2023-01-28T03:34:43;96591.69;;;3.63;100.00
10348;BME280;5220;43.192;23.284;2023-01-28T03:37:28;96597.34;;;3.70;100.00
10348;BME280;5220;43.192;23.284;2023-01-28T03:40:00;96600.59;;;3.73;100.00
10348;BME280;5220;43.192;23.284;2023-01-28T03:42:29;96596.41;;;3.71;100.00
10348;BME280;5220;43.192;23.284;2023-01-28T03:44:56;96601.81;;;3.66;100.00
10348;BME280;5220;43.192;23.284;2023-01-28T03:47:26;96601.56;;;3.71;100.00
10348;BME280;5220;43.192;23.284;2023-01-28T03:49:55;96596.25;;;3.74;100.00
10348;BME280;5220;43.192;23.284;2023-01-28T03:52:25;96599.59;;;3.76;100.00
10348;BME280;5220;43.192;23.284;2023-01-28T03:54:52;96601.34;;;3.75;100.00
10348;BME280;5220;43.192;23.284;2023-01-28T03:57:20;96607.16;;;3.79;100.00
10348;BME280;5220;43.192;23.284;2023-01-28T03:59:47;96607.22;;;3.77;100.00
10348;BME280;5220;43.192;23.284;2023-01-28T04:02:15;96610.78;;;3.75;100.00
10348;BME280;5220;43.192;23.284;2023-01-28T04:04:44;96617.50;;;3.77;100.00
10348;BME280;5220;43.192;23.284;2023-01-28T04:07:11;96614.88;;;3.79;100.00
10348;BME280;5220;43.192;23.284;2023-01-28T04:09:40;96622.59;;;3.79;100.00
10348;BME280;5220;43.192;23.284;2023-01-28T04:12:07;96621.75;;;3.78;100.00
10348;BME280;5220;43.192;23.284;2023-01-28T04:14:35;96618.34;;;3.78;100.00
10348;BME280;5220;43.192;23.284;2023-01-28T04:17:01;96622.50;;;3.80;100.00
10348;BME280;5220;43.192;23.284;2023-01-28T04:19:28;96624.25;;;3.80;100.00
10348;BME280;5220;43.192;23.284;2023-01-28T04:22:04;96626.75;;;3.82;100.00
10348;BME280;5220;43.192;23.284;2023-01-28T04:24:31;96630.16;;;3.82;100.00
10348;BME280;5220;43.192;23.284;2023-01-28T04:26:58;96636.94;;;3.83;100.00
10348;BME280;5220;43.192;23.284;2023-01-28T04:29:25;96629.38;;;3.80;100.00
10348;BME280;5220;43.192;23.284;2023-01-28T04:31:51;96628.31;;;3.84;100.00
10348;BME280;5220;43.192;23.284;2023-01-28T04:34:18;96638.63;;;3.84;100.00
10348;BME280;5220;43.192;23.284;2023-01-28T04:36:45;96642.03;;;3.85;100.00
10348;BME280;5220;43.192;23.284;2023-01-28T04:39:14;96641.19;;;3.84;100.00
10348;BME280;5220;43.192;23.284;2023-01-28T04:41:40;96641.28;;;3.83;100.00
10348;BME280;5220;43.192;23.284;2023-01-28T04:44:07;96645.50;;;3.84;100.00
10348;BME280;5220;43.192;23.284;2023-01-28T04:46:34;96648.16;;;3.82;100.00
10348;BME280;5220;43.192;23.284;2023-01-28T04:49:01;96648.78;;;3.70;100.00
10348;BME280;5220;43.192;23.284;2023-01-28T04:51:27;96647.88;;;3.71;100.00
10348;BME280;5220;43.192;23.284;2023-01-28T04:53:54;96647.72;;;3.74;100.00
10348;BME280;5220;43.192;23.284;2023-01-28T04:56:22;96658.69;;;3.77;100.00
10348;BME280;5220;43.192;23.284;2023-01-28T04:58:49;96657.69;;;3.80;100.00
10348;BME280;5220;43.192;23.284;2023-01-28T05:01:16;96660.19;;;3.82;100.00
10348;BME280;5220;43.192;23.284;2023-01-28T05:03:42;96660.09;;;3.83;100.00
10348;BME280;5220;43.192;23.284;2023-01-28T05:06:09;96666.03;;;3.85;100.00
10348;BME280;5220;43.192;23.284;2023-01-28T05:08:36;96666.91;;;3.84;100.00
10348;BME280;5220;43.192;23.284;2023-01-28T05:11:03;96672.00;;;3.86;100.00
10348;BME280;5220;43.192;23.284;2023-01-28T05:13:31;96671.06;;;3.87;100.00
10348;BME280;5220;43.192;23.284;2023-01-28T05:15:58;96668.59;;;3.85;100.00
10348;BME280;5220;43.192;23.284;2023-01-28T05:18:24;96676.22;;;3.87;100.00
10348;BME280;5220;43.192;23.284;2023-01-28T05:20:51;96676.22;;;3.87;100.00
10348;BME280;5220;43.192;23.284;2023-01-28T05:23:18;96671.00;;;3.88;100.00
10348;BME280;5220;43.192;23.284;2023-01-28T05:25:44;96671.00;;;3.88;100.00
10348;BME280;5220;43.192;23.284;2023-01-28T05:28:11;96680.41;;;3.89;100.00
10348;BME280;5220;43.192;23.284;2023-01-28T05:30:39;96679.56;;;3.89;100.00
10348;BME280;5220;43.192;23.284;2023-01-28T05:33:06;96677.00;;;3.89;100.00
10348;BME280;5220;43.192;23.284;2023-01-28T05:35:32;96681.97;;;3.92;100.00
10348;BME280;5220;43.192;23.284;2023-01-28T05:38:00;96682.03;;;3.90;100.00
10348;BME280;5220;43.192;23.284;2023-01-28T05:40:27;96688.13;;;3.89;100.00
10348;BME280;5220;43.192;23.284;2023-01-28T05:42:54;96689.06;;;3.87;100.00
10348;BME280;5220;43.192;23.284;2023-01-28T05:45:20;96684.78;;;3.87;100.00
10348;BME280;5220;43.192;23.284;2023-01-28T05:47:48;96690.75;;;3.88;100.00
10348;BME280;5220;43.192;23.284;2023-01-28T05:50:15;96694.91;;;3.90;100.00
10348;BME280;5220;43.192;23.284;2023-01-28T05:52:42;96700.06;;;3.90;100.00
10348;BME280;5220;43.192;23.284;2023-01-28T05:55:09;96700.00;;;3.92;100.00
10348;BME280;5220;43.192;23.284;2023-01-28T05:57:36;96704.44;;;3.88;100.00
10348;BME280;5220;43.192;23.284;2023-01-28T06:00:03;96707.72;;;3.92;100.00
10348;BME280;5220;43.192;23.284;2023-01-28T06:02:31;96711.19;;;3.91;100.00
10348;BME280;5220;43.192;23.284;2023-01-28T06:04:59;96709.34;;;3.93;100.00
10348;BME280;5220;43.192;23.284;2023-01-28T06:07:25;96722.00;;;3.97;100.00
10348;BME280;5220;43.192;23.284;2023-01-28T06:09:52;96714.19;;;3.99;100.00
10348;BME280;5220;43.192;23.284;2023-01-28T06:12:19;96724.41;;;4.00;100.00
10348;BME280;5220;43.192;23.284;2023-01-28T06:14:45;96721.84;;;4.00;100.00
10348;BME280;5220;43.192;23.284;2023-01-28T06:17:12;96727.72;;;4.02;100.00
10348;BME280;5220;43.192;23.284;2023-01-28T06:19:39;96727.81;;;4.01;100.00
10348;BME280;5220;43.192;23.284;2023-01-28T06:22:07;96736.28;;;4.03;100.00
10348;BME280;5220;43.192;23.284;2023-01-28T06:24:34;96737.19;;;4.02;100.00
10348;BME280;5220;43.192;23.284;2023-01-28T06:27:00;96743.78;;;4.07;100.00
10348;BME280;5220;43.192;23.284;2023-01-28T06:29:27;96742.81;;;4.10;100.00
10348;BME280;5220;43.192;23.284;2023-01-28T06:31:54;96747.84;;;4.11;100.00
10348;BME280;5220;43.192;23.284;2023-01-28T06:34:20;96746.13;;;4.12;100.00
10348;BME280;5220;43.192;23.284;2023-01-28T06:36:47;96744.22;;;4.15;100.00
10348;BME280;5220;43.192;23.284;2023-01-28T06:39:16;96750.28;;;4.14;100.00
10348;BME280;5220;43.192;23.284;2023-01-28T06:41:43;96744.91;;;4.19;100.00
10348;BME280;5220;43.192;23.284;2023-01-28T06:44:09;96749.22;;;4.18;100.00
10348;BME280;5220;43.192;23.284;2023-01-28T06:46:36;96758.47;;;4.22;100.00
10348;BME280;5220;43.192;23.284;2023-01-28T06:49:03;96754.88;;;4.25;100.00
10348;BME280;5220;43.192;23.284;2023-01-28T06:51:30;96759.97;;;4.26;100.00
10348;BME280;5220;43.192;23.284;2023-01-28T06:53:57;96756.47;;;4.27;100.00
10348;BME280;5220;43.192;23.284;2023-01-28T06:56:25;96754.66;;;4.29;100.00
10348;BME280;5220;43.192;23.284;2023-01-28T06:58:51;96758.88;;;4.30;100.00
10348;BME280;5220;43.192;23.284;2023-01-28T07:01:18;96752.69;;;4.34;100.00
10348;BME280;5220;43.192;23.284;2023-01-28T07:03:45;96759.25;;;4.40;100.00
10348;BME280;5220;43.192;23.284;2023-01-28T07:06:12;96764.41;;;4.40;100.00
10348;BME280;5220;43.192;23.284;2023-01-28T07:08:38;96766.75;;;4.45;100.00
10348;BME280;5220;43.192;23.284;2023-01-28T07:11:05;96767.50;;;4.47;100.00
10348;BME280;5220;43.192;23.284;2023-01-28T07:13:34;96768.47;;;4.44;100.00
10348;BME280;5220;43.192;23.284;2023-01-28T07:16:00;96770.81;;;4.49;100.00
10348;BME280;5220;43.192;23.284;2023-01-28T07:18:28;96775.94;;;4.49;100.00
10348;BME280;5220;43.192;23.284;2023-01-28T07:20:55;96784.47;;;4.51;100.00
10348;BME280;5220;43.192;23.284;2023-01-28T07:23:22;96787.19;;;4.48;100.00
10348;BME280;5220;43.192;23.284;2023-01-28T07:25:48;96787.88;;;4.51;100.00
10348;BME280;5220;43.192;23.284;2023-01-28T07:28:15;96793.75;;;4.53;100.00
10348;BME280;5220;43.192;23.284;2023-01-28T07:30:47;96795.44;;;4.54;100.00
10348;BME280;5220;43.192;23.284;2023-01-28T07:33:14;96794.44;;;4.57;100.00
10348;BME280;5220;43.192;23.284;2023-01-28T07:35:41;96800.50;;;4.56;100.00
10348;BME280;5220;43.192;23.284;2023-01-28T07:38:08;96804.66;;;4.58;100.00
10348;BME280;5220;43.192;23.284;2023-01-28T07:40:34;96801.16;;;4.59;100.00
10348;BME280;5220;43.192;23.284;2023-01-28T07:43:01;96804.50;;;4.61;100.00
10348;BME280;5220;43.192;23.284;2023-01-28T07:45:28;96813.88;;;4.62;100.00
10348;BME280;5220;43.192;23.284;2023-01-28T07:47:58;96808.06;;;4.59;100.00
10348;BME280;5220;43.192;23.284;2023-01-28T07:50:26;96807.91;;;4.62;100.00
10348;BME280;5220;43.192;23.284;2023-01-28T07:52:54;96810.56;;;4.60;100.00
10348;BME280;5220;43.192;23.284;2023-01-28T07:55:20;96808.91;;;4.59;100.00
10348;BME280;5220;43.192;23.284;2023-01-28T07:57:49;96813.88;;;4.62;100.00
10348;BME280;5220;43.192;23.284;2023-01-28T08:00:16;96806.16;;;4.62;100.00
10348;BME280;5220;43.192;23.284;2023-01-28T08:02:43;96817.22;;;4.64;100.00
10348;BME280;5220;43.192;23.284;2023-01-28T08:05:15;96824.78;;;4.67;100.00
10348;BME280;5220;43.192;23.284;2023-01-28T08:07:43;96825.63;;;4.68;100.00
10348;BME280;5220;43.192;23.284;2023-01-28T08:10:10;96822.63;;;4.60;100.00
10348;BME280;5220;43.192;23.284;2023-01-28T08:12:38;96829.50;;;4.59;100.00
10348;BME280;5220;43.192;23.284;2023-01-28T08:15:06;96820.03;;;4.60;100.00
10348;BME280;5220;43.192;23.284;2023-01-28T08:17:33;96827.66;;;4.61;100.00
10348;BME280;5220;43.192;23.284;2023-01-28T08:19:59;96831.03;;;4.63;100.00
10348;BME280;5220;43.192;23.284;2023-01-28T08:22:28;96827.50;;;4.64;100.00
10348;BME280;5220;43.192;23.284;2023-01-28T08:24:54;96836.69;;;4.70;100.00
10348;BME280;5220;43.192;23.284;2023-01-28T08:27:21;96838.34;;;4.71;100.00
10348;BME280;5220;43.192;23.284;2023-01-28T08:29:48;96833.19;;;4.71;100.00
10348;BME280;5220;43.192;23.284;2023-01-28T08:32:14;96834.84;;;4.72;100.00
10348;BME280;5220;43.192;23.284;2023-01-28T08:34:41;96842.75;;;4.69;100.00
10348;BME280;5220;43.192;23.284;2023-01-28T08:37:08;96847.16;;;4.67;100.00
10348;BME280;5220;43.192;23.284;2023-01-28T08:39:36;96838.34;;;4.71;100.00
10348;BME280;5220;43.192;23.284;2023-01-28T08:42:04;96842.28;;;4.78;100.00
10348;BME280;5220;43.192;23.284;2023-01-28T08:44:30;96847.81;;;4.70;100.00
10348;BME280;5220;43.192;23.284;2023-01-28T08:46:57;96850.75;;;4.80;100.00
10348;BME280;5220;43.192;23.284;2023-01-28T08:49:24;96850.69;;;4.81;100.00
10348;BME280;5220;43.192;23.284;2023-01-28T08:51:51;96841.06;;;4.85;100.00
10348;BME280;5220;43.192;23.284;2023-01-28T08:54:17;96853.78;;;4.88;100.00
10348;BME280;5220;43.192;23.284;2023-01-28T08:56:45;96856.09;;;4.93;100.00
10348;BME280;5220;43.192;23.284;2023-01-28T08:59:13;96851.56;;;4.98;100.00
10348;BME280;5220;43.192;23.284;2023-01-28T09:01:39;96848.72;;;5.02;100.00
10348;BME280;5220;43.192;23.284;2023-01-28T09:04:06;96847.56;;;5.08;100.00
10348;BME280;5220;43.192;23.284;2023-01-28T09:06:33;96851.56;;;5.13;100.00
10348;BME280;5220;43.192;23.284;2023-01-28T09:09:00;96851.41;;;5.16;100.00
10348;BME280;5220;43.192;23.284;2023-01-28T09:11:28;96854.16;;;5.13;100.00
10348;BME280;5220;43.192;23.284;2023-01-28T09:13:57;96846.75;;;5.07;100.00
10348;BME280;5220;43.192;23.284;2023-01-28T09:16:24;96858.38;;;5.14;100.00
10348;BME280;5220;43.192;23.284;2023-01-28T09:18:51;96846.25;;;5.16;100.00
10348;BME280;5220;43.192;23.284;2023-01-28T09:21:18;96847.91;;;5.17;100.00
10348;BME280;5220;43.192;23.284;2023-01-28T09:23:45;96856.06;;;5.25;100.00
10348;BME280;5220;43.192;23.284;2023-01-28T09:26:12;96854.97;;;5.29;100.00
10348;BME280;5220;43.192;23.284;2023-01-28T09:28:38;96847.06;;;5.32;100.00
10348;BME280;5220;43.192;23.284;2023-01-28T09:31:08;96851.09;;;5.38;100.00
10348;BME280;5220;43.192;23.284;2023-01-28T09:33:36;96851.59;;;5.45;100.00
10348;BME280;5220;43.192;23.284;2023-01-28T09:36:05;96846.50;;;5.43;100.00
10348;BME280;5220;43.192;23.284;2023-01-28T09:38:33;96851.59;;;5.45;100.00
10348;BME280;5220;43.192;23.284;2023-01-28T09:41:01;96847.19;;;5.47;100.00
10348;BME280;5220;43.192;23.284;2023-01-28T09:43:44;96843.41;;;5.52;100.00
10348;BME280;5220;43.192;23.284;2023-01-28T09:46:17;96846.44;;;5.60;100.00
10348;BME280;5220;43.192;23.284;2023-01-28T09:48:45;96841.84;;;5.65;100.00
10348;BME280;5220;43.192;23.284;2023-01-28T09:51:25;96842.56;;;5.67;100.00
10348;BME280;5220;43.192;23.284;2023-01-28T09:53:56;96842.16;;;5.75;100.00
10348;BME280;5220;43.192;23.284;2023-01-28T09:56:29;96841.81;;;5.81;100.00
10348;BME280;5220;43.192;23.284;2023-01-28T09:58:57;96843.19;;;5.88;100.00
10348;BME280;5220;43.192;23.284;2023-01-28T10:01:37;96845.41;;;5.94;100.00
10348;BME280;5220;43.192;23.284;2023-01-28T10:04:16;96842.06;;;5.92;100.00
10348;BME280;5220;43.192;23.284;2023-01-28T10:06:55;96845.00;;;5.86;100.00
10348;BME280;5220;43.192;23.284;2023-01-28T10:09:33;96837.69;;;5.94;100.00
10348;BME280;5220;43.192;23.284;2023-01-28T10:12:23;96838.00;;;6.04;100.00
10348;BME280;5220;43.192;23.284;2023-01-28T10:17:49;96832.84;;;6.18;100.00
10348;BME280;5220;43.192;23.284;2023-01-28T10:20:21;96835.38;;;6.19;100.00
10348;BME280;5220;43.192;23.284;2023-01-28T10:22:54;96837.41;;;6.28;100.00
10348;BME280;5220;43.192;23.284;2023-01-28T10:25:23;96844.81;;;6.34;100.00
10348;BME280;5220;43.192;23.284;2023-01-28T10:27:51;96841.38;;;6.34;100.00
10348;BME280;5220;43.192;23.284;2023-01-28T10:30:19;96839.28;;;6.40;100.00
10348;BME280;5220;43.192;23.284;2023-01-28T10:32:51;96831.44;;;6.42;100.00
10348;BME280;5220;43.192;23.284;2023-01-28T10:35:19;96841.03;;;6.40;100.00
10348;BME280;5220;43.192;23.284;2023-01-28T10:37:46;96834.19;;;6.39;100.00
10348;BME280;5220;43.192;23.284;2023-01-28T10:40:14;96837.19;;;6.47;100.00
10348;BME280;5220;43.192;23.284;2023-01-28T10:42:41;96839.66;;;6.48;100.00
10348;BME280;5220;43.192;23.284;2023-01-28T10:45:20;96837.00;;;6.50;100.00
10348;BME280;5220;43.192;23.284;2023-01-28T10:47:52;96828.47;;;6.48;100.00
10348;BME280;5220;43.192;23.284;2023-01-28T10:50:23;96835.88;;;6.54;100.00
10348;BME280;5220;43.192;23.284;2023-01-28T10:52:54;96827.38;;;6.38;100.00
10348;BME280;5220;43.192;23.284;2023-01-28T10:55:23;96836.59;;;6.42;100.00
10348;BME280;5220;43.192;23.284;2023-01-28T10:57:52;96835.25;;;6.51;100.00
10348;BME280;5220;43.192;23.284;2023-01-28T11:00:24;96822.94;;;6.54;100.00
10348;BME280;5220;43.192;23.284;2023-01-28T11:02:52;96840.41;;;6.65;100.00
10348;BME280;5220;43.192;23.284;2023-01-28T11:05:23;96833.50;;;6.65;100.00
10348;BME280;5220;43.192;23.284;2023-01-28T11:08:03;96829.72;;;6.71;100.00
10348;BME280;5220;43.192;23.284;2023-01-28T11:10:31;96833.41;;;6.67;100.00
10348;BME280;5220;43.192;23.284;2023-01-28T11:13:01;96828.69;;;6.73;100.00
10348;BME280;5220;43.192;23.284;2023-01-28T11:15:28;96832.31;;;6.57;100.00
10348;BME280;5220;43.192;23.284;2023-01-28T11:17:59;96831.00;;;6.64;100.00
10348;BME280;5220;43.192;23.284;2023-01-28T11:20:32;96830.88;;;6.51;100.00
10348;BME280;5220;43.192;23.284;2023-01-28T11:23:01;96833.56;;;6.49;100.00
10348;BME280;5220;43.192;23.284;2023-01-28T11:25:30;96825.88;;;6.34;100.00
10348;BME280;5220;43.192;23.284;2023-01-28T11:27:58;96832.81;;;6.33;100.00
10348;BME280;5220;43.192;23.284;2023-01-28T11:30:27;96835.75;;;6.27;100.00
10348;BME280;5220;43.192;23.284;2023-01-28T11:33:06;96835.38;;;6.33;100.00
10348;BME280;5220;43.192;23.284;2023-01-28T11:35:33;96835.75;;;6.27;100.00
10348;BME280;5220;43.192;23.284;2023-01-28T11:38:00;96835.38;;;6.19;100.00
10348;BME280;5220;43.192;23.284;2023-01-28T11:40:27;96829.66;;;5.83;100.00
10348;BME280;5220;43.192;23.284;2023-01-28T11:42:55;96828.59;;;5.87;100.00
10348;BME280;5220;43.192;23.284;2023-01-28T11:45:31;96828.56;;;6.03;100.00
10348;BME280;5220;43.192;23.284;2023-01-28T11:48:15;96829.22;;;6.06;100.00
10348;BME280;5220;43.192;23.284;2023-01-28T11:50:46;96828.56;;;6.03;100.00
10348;BME280;5220;43.192;23.284;2023-01-28T11:53:36;96825.78;;;5.91;100.00
10348;BME280;5220;43.192;23.284;2023-01-28T11:56:16;96827.34;;;5.94;100.00
10348;BME280;5220;43.192;23.284;2023-01-28T11:58:54;96825.19;;;5.71;100.00
10348;BME280;5220;43.192;23.284;2023-01-28T12:01:34;96824.75;;;5.94;100.00
10348;BME280;5220;43.192;23.284;2023-01-28T12:04:18;96825.13;;;5.88;100.00
10348;BME280;5220;43.192;23.284;2023-01-28T12:06:58;96829.75;;;5.81;100.00
10348;BME280;5220;43.192;23.284;2023-01-28T12:09:36;96830.25;;;6.04;100.00
10348;BME280;5220;43.192;23.284;2023-01-28T12:12:18;96832.53;;;6.08;100.00
10348;BME280;5220;43.192;23.284;2023-01-28T12:15:02;96830.94;;;6.21;100.00
10348;BME280;5220;43.192;23.284;2023-01-28T12:17:42;96838.25;;;6.29;100.00
10348;BME280;5220;43.192;23.284;2023-01-28T12:20:17;96833.09;;;6.29;100.00
10348;BME280;5220;43.192;23.284;2023-01-28T12:23:02;96841.56;;;6.31;100.00
10348;BME280;5220;43.192;23.284;2023-01-28T12:25:40;96843.91;;;6.20;100.00
10348;BME280;5220;43.192;23.284;2023-01-28T12:28:18;96838.13;;;6.16;100.00
10348;BME280;5220;43.192;23.284;2023-01-28T12:31:11;96843.84;;;6.21;100.00
10348;BME280;5220;43.192;23.284;2023-01-28T12:33:57;96836.81;;;6.23;100.00
10348;BME280;5220;43.192;23.284;2023-01-28T12:36:42;96844.56;;;6.23;100.00
10348;BME280;5220;43.192;23.284;2023-01-28T12:39:22;96845.03;;;6.16;100.00
10348;BME280;5220;43.192;23.284;2023-01-28T12:41:59;96843.00;;;6.21;100.00
10348;BME280;5220;43.192;23.284;2023-01-28T12:44:31;96844.94;;;6.17;100.00
10348;BME280;5220;43.192;23.284;2023-01-28T12:47:02;96837.00;;;6.20;100.00
10348;BME280;5220;43.192;23.284;2023-01-28T12:49:34;96840.41;;;6.21;100.00
10348;BME280;5220;43.192;23.284;2023-01-28T12:52:09;96847.63;;;6.16;100.00
10348;BME280;5220;43.192;23.284;2023-01-28T12:54:40;96848.44;;;6.16;100.00
10348;BME280;5220;43.192;23.284;2023-01-28T12:57:14;96839.88;;;6.16;100.00
10348;BME280;5220;43.192;23.284;2023-01-28T12:59:45;96843.41;;;5.99;100.00
10348;BME280;5220;43.192;23.284;2023-01-28T13:02:22;96853.47;;;6.04;100.00
10348;BME280;5220;43.192;23.284;2023-01-28T13:04:55;96849.13;;;6.04;100.00
10348;BME280;5220;43.192;23.284;2023-01-28T13:07:32;96858.53;;;6.05;100.00
10348;BME280;5220;43.192;23.284;2023-01-28T13:10:03;96858.28;;;6.10;100.00
10348;BME280;5220;43.192;23.284;2023-01-28T13:12:31;96865.22;;;6.09;100.00
10348;BME280;5220;43.192;23.284;2023-01-28T13:14:59;96869.59;;;6.07;100.00
10348;BME280;5220;43.192;23.284;2023-01-28T13:17:27;96864.38;;;6.09;100.00
10348;BME280;5220;43.192;23.284;2023-01-28T13:19:54;96865.72;;;6.00;100.00
10348;BME280;5220;43.192;23.284;2023-01-28T13:22:29;96863.31;;;5.97;100.00